Terminal Aerodrome Forecast
Issued by NWS

Home | Current Version | Previous Version | Text Only | Print | Product List | Glossary On
Versions: 1 2 3 4 5 6 7 8 9 10 11 12 13 14 15 16 17 18 19 20 21 22 23 24 25 26
000
FTUS45 KREV 211100
TAFTRK
TAF
KTRK 211125Z 2112/2212 VRB03KT P6SM SCT070 BKN120
     FM211600 14006KT P6SM VCSH SCT050 BKN110
     FM212100 28007KT 2SM FU HZ SCT020 BKN090
     FM220200 VRB04KT 5SM HZ SCT090=

USA.gov is the U.S. government's official web portal to all federal, state and local government web resources and services.